TimePST,TemperatureF,Dew PointF,Humidity,Sea Level PressureIn,VisibilityMPH,Wind Direction,Wind SpeedMPH,Gust SpeedMPH,PrecipitationIn,Events,Conditions,WindDirDegrees,DateUTC
12:54 AM,48.0,19.9,33,30.07,10.0,East,4.6,-,N/A,,Clear,100,2014-01-19 08:54:00
1:54 AM,46.9,19.0,33,30.07,10.0,ESE,4.6,-,N/A,,Clear,110,2014-01-19 09:54:00
2:54 AM,50.0,19.0,29,30.08,10.0,Calm,Calm,-,N/A,,Clear,0,2014-01-19 10:54:00
3:54 AM,46.9,19.0,33,30.07,10.0,Calm,Calm,-,N/A,,Clear,0,2014-01-19 11:54:00
4:54 AM,46.9,17.1,30,30.08,10.0,Calm,Calm,-,N/A,,Clear,0,2014-01-19 12:54:00
5:54 AM,46.9,17.1,30,30.09,10.0,East,5.8,-,N/A,,Clear,90,2014-01-19 13:54:00
6:54 AM,45.0,17.1,33,30.10,10.0,Calm,Calm,-,N/A,,Clear,0,2014-01-19 14:54:00
7:54 AM,48.0,17.1,29,30.11,10.0,Calm,Calm,-,N/A,,Clear,0,2014-01-19 15:54:00
8:54 AM,54.0,21.9,29,30.13,10.0,Calm,Calm,-,N/A,,Clear,0,2014-01-19 16:54:00
9:54 AM,64.0,21.9,20,30.15,10.0,Calm,Calm,-,N/A,,Clear,0,2014-01-19 17:54:00
10:54 AM,64.9,36.0,34,30.14,9.0,NW,3.5,-,N/A,,Clear,310,2014-01-19 18:54:00
11:54 AM,66.9,28.9,24,30.13,10.0,WNW,3.5,-,N/A,,Clear,290,2014-01-19 19:54:00
12:54 PM,68.0,21.9,17,30.11,10.0,NW,3.5,-,N/A,,Clear,310,2014-01-19 20:54:00
1:54 PM,68.0,45.0,43,30.09,10.0,NNW,4.6,-,N/A,,Clear,340,2014-01-19 21:54:00
2:54 PM,69.1,36.0,30,30.09,10.0,WNW,3.5,-,N/A,,Clear,290,2014-01-19 22:54:00
3:54 PM,66.0,50.0,56,30.09,10.0,Calm,Calm,-,N/A,,Clear,0,2014-01-19 23:54:00
4:54 PM,63.0,50.0,63,30.09,7.0,WNW,3.5,-,N/A,,Clear,290,2014-01-20 00:54:00
5:54 PM,57.9,50.0,75,30.11,7.0,Calm,Calm,-,N/A,,Clear,0,2014-01-20 01:54:00
6:54 PM,52.0,42.1,69,30.13,10.0,Calm,Calm,-,N/A,,Clear,0,2014-01-20 02:54:00
7:54 PM,50.0,41.0,71,30.13,9.0,Calm,Calm,-,N/A,,Clear,0,2014-01-20 03:54:00
8:54 PM,50.0,36.0,59,30.14,10.0,Calm,Calm,-,N/A,,Clear,0,2014-01-20 04:54:00
9:54 PM,48.9,30.0,48,30.15,10.0,East,3.5,-,N/A,,Clear,90,2014-01-20 05:54:00
10:54 PM,46.9,27.0,46,30.15,10.0,Calm,Calm,-,N/A,,Clear,0,2014-01-20 06:54:00
11:54 PM,46.0,25.0,44,30.16,10.0,Calm,Calm,-,N/A,,Clear,0,2014-01-20 07:54:00